Cotulla, Texas
Current Conditions -  °F | °C
As of 3:53 PM on Saturday 25 Oct 2014 (Local Time) from KCOT Reporting Station
Clear Clear  
Wind Chill: 90°   Ceiling: Unl
Heat Index: 90°   Visibility: 10mi
Dew Point: 54°   Wind: 7mph
Humidity: 29%   Direction: NA
Pressure: 30.07"   Gusts: NA
Location:  28.44°N, 99.24°W
Report Text: KCOT 252053Z AUTO VRB06KT 10SM CLR 32/12 A3007 RMK AO2 SLP176 T03220122 56026
Loading
Personal Weather Stations






























Interactive Weather Map New forecast layout! Learn more

10-Day Weather Forecast

Advertisements
Track Severe Weather on mobile